Time;durP1;ratioP1;P1;durP2;ratioP2;P2;SDS_P1;SDS_P2;PMS_P1;PMS_P2;Temp;Humidity;BMP_temperature;BMP_pressure;BME280_temperature;BME280_humidity;BME280_pressure;Samples;Min_cycle;Max_cycle;Signal;HPM_P1;HPM_P2
2023/03/08 00:01:39;;;;;;;16.88;2.05;;;;;;;0.41;95.58;99244.25;4800461;29;20233;-70
2023/03/08 00:04:10;;;;;;;4.97;2.05;;;;;;;0.39;95.66;99245.41;4802393;29;20214;-70
2023/03/08 00:06:41;;;;;;;7.15;1.92;;;;;;;0.34;96.04;99250.44;4802468;29;20240;-69
2023/03/08 00:09:10;;;;;;;3.65;2.05;;;;;;;0.35;96.40;99254.75;4802768;29;20697;-69
2023/03/08 00:11:40;;;;;;;5.80;2.40;;;;;;;0.35;96.77;99260.91;4787636;29;20225;-72
2023/03/08 00:14:09;;;;;;;3.20;1.75;;;;;;;0.23;96.69;99259.69;4802566;29;20214;-70
2023/03/08 00:16:38;;;;;;;4.72;2.55;;;;;;;0.25;96.81;99262.97;4802149;29;20773;-69
2023/03/08 00:19:07;;;;;;;14.35;2.35;;;;;;;0.23;97.02;99270.31;4802646;29;20679;-70
2023/03/08 00:21:36;;;;;;;5.70;2.47;;;;;;;0.16;97.53;99266.69;4800251;29;20217;-70
2023/03/08 00:24:06;;;;;;;6.78;2.20;;;;;;;0.20;97.10;99277.78;4789976;29;20204;-70
2023/03/08 00:26:35;;;;;;;6.80;3.13;;;;;;;0.18;97.37;99269.19;4803135;29;20213;-70
2023/03/08 00:29:05;;;;;;;3.63;2.28;;;;;;;0.20;97.18;99277.78;4802363;29;20213;-71
2023/03/08 00:31:34;;;;;;;6.32;2.42;;;;;;;0.15;97.57;99275.66;4789089;29;20356;-70
2023/03/08 00:34:03;;;;;;;9.88;2.45;;;;;;;0.09;97.96;99280.88;4810828;29;20212;-71
2023/03/08 00:36:32;;;;;;;5.00;2.85;;;;;;;0.10;98.08;99288.66;4800144;29;20273;-70
2023/03/08 00:39:01;;;;;;;8.13;3.28;;;;;;;0.07;98.19;99282.88;4813409;29;20217;-72
2023/03/08 00:41:33;;;;;;;3.38;2.45;;;;;;;0.14;97.99;99284.69;4811432;29;20289;-71
2023/03/08 00:44:02;;;;;;;4.30;2.60;;;;;;;0.19;97.73;99284.97;4804942;29;20266;-71
2023/03/08 00:46:31;;;;;;;7.63;2.80;;;;;;;0.23;97.80;99294.25;4804283;29;20678;-70
2023/03/08 00:49:00;;;;;;;3.20;2.50;;;;;;;0.16;98.02;99287.13;4795671;29;20710;-71
2023/03/08 00:51:32;;;;;;;4.40;2.70;;;;;;;0.21;97.87;99288.28;4792579;29;20202;-69
2023/03/08 00:54:01;;;;;;;10.02;3.60;;;;;;;0.16;98.13;99289.78;4800463;29;20209;-70
2023/03/08 00:56:32;;;;;;;6.28;3.05;;;;;;;0.15;98.18;99294.28;4797799;29;20225;-70
2023/03/08 00:59:01;;;;;;;5.38;2.72;;;;;;;0.10;98.57;99288.66;4804493;29;20216;-71
2023/03/08 01:01:30;;;;;;;4.78;3.65;;;;;;;0.14;98.44;99290.00;4797626;29;20226;-70
2023/03/08 01:03:59;;;;;;;13.57;3.83;;;;;;;0.10;98.49;99288.66;4801755;29;20209;-70
2023/03/08 01:06:28;;;;;;;10.18;2.97;;;;;;;0.12;98.46;99297.31;4801508;29;20301;-71
2023/03/08 01:08:57;;;;;;;11.00;4.28;;;;;;;0.08;98.55;99295.16;4789618;29;20205;-68
2023/03/08 01:11:27;;;;;;;6.55;3.53;;;;;;;0.06;99.05;99297.16;4799577;29;20303;-70
2023/03/08 01:13:58;;;;;;;8.73;4.18;;;;;;;0.02;99.03;99301.16;4791019;29;20244;-70
2023/03/08 01:16:29;;;;;;;8.73;3.78;;;;;;;-0.01;99.51;99307.69;4789539;29;20206;-70
2023/03/08 01:19:00;;;;;;;6.22;4.20;;;;;;;-0.12;100.00;99306.22;4808384;29;20209;-70
2023/03/08 01:21:30;;;;;;;10.73;3.50;;;;;;;-0.11;100.00;99302.56;4809049;29;20246;-69
2023/03/08 01:24:00;;;;;;;3.90;3.47;;;;;;;-0.11;100.00;99301.75;4802118;29;20213;-69
2023/03/08 01:26:29;;;;;;;5.90;3.53;;;;;;;-0.16;100.00;99304.09;4786544;29;20220;-69
2023/03/08 01:28:59;;;;;;;5.88;3.83;;;;;;;-0.09;100.00;99305.88;4801289;29;20224;-70
2023/03/08 01:31:30;;;;;;;6.15;3.85;;;;;;;-0.14;100.00;99304.72;4801639;29;20205;-71
2023/03/08 01:34:01;;;;;;;5.18;3.95;;;;;;;-0.08;100.00;99304.03;4803442;29;20236;-69
2023/03/08 01:36:30;;;;;;;3.55;3.15;;;;;;;-0.16;100.00;99304.91;4800732;29;20217;-70
2023/03/08 01:39:01;;;;;;;6.68;2.90;;;;;;;-0.17;100.00;99311.22;4787686;29;20289;-70
2023/03/08 01:41:32;;;;;;;6.93;4.15;;;;;;;-0.11;100.00;99315.03;4801296;29;20241;-69
2023/03/08 01:44:03;;;;;;;4.78;3.28;;;;;;;-0.16;100.00;99315.56;4801761;29;20212;-70
2023/03/08 01:46:33;;;;;;;5.95;4.40;;;;;;;-0.20;100.00;99313.41;4801222;29;20206;-70
2023/03/08 01:49:14;;;;;;;6.72;3.60;;;;;;;-0.17;100.00;99319.19;4801242;29;20274;-70
2023/03/08 01:51:47;;;;;;;3.22;2.92;;;;;;;-0.23;100.00;99319.06;4801316;29;20270;-70
2023/03/08 01:54:19;;;;;;;6.20;3.58;;;;;;;-0.21;100.00;99317.06;4801509;29;20267;-70
2023/03/08 01:56:51;;;;;;;6.05;4.18;;;;;;;-0.15;100.00;99327.00;4798130;29;20205;-71
2023/03/08 01:59:23;;;;;;;11.40;4.55;;;;;;;-0.13;100.00;99320.50;4795055;29;20209;-70
2023/03/08 02:01:58;;;;;;;9.02;4.05;;;;;;;-0.17;100.00;99321.03;4801276;29;20248;-70
2023/03/08 02:04:28;;;;;;;5.32;3.80;;;;;;;-0.17;100.00;99329.84;4803516;29;20201;-70
2023/03/08 02:06:59;;;;;;;6.45;4.05;;;;;;;-0.22;100.00;99320.72;4810510;29;20259;-70
2023/03/08 02:09:28;;;;;;;6.82;4.35;;;;;;;-0.26;100.00;99330.03;4802070;29;20708;-70
2023/03/08 02:12:04;;;;;;;14.15;5.32;;;;;;;-0.24;100.00;99325.38;4802102;29;20211;-71
2023/03/08 02:14:35;;;;;;;6.60;5.13;;;;;;;-0.30;100.00;99331.38;4797188;29;20233;-71
2023/03/08 02:17:04;;;;;;;8.23;4.47;;;;;;;-0.26;100.00;99335.34;4801286;29;20235;-70
2023/03/08 02:19:41;;;;;;;10.00;5.47;;;;;;;-0.22;100.00;99332.19;4801481;29;20213;-70
2023/03/08 02:22:12;;;;;;;5.93;4.10;;;;;;;-0.19;100.00;99336.31;4786885;29;20649;-70
2023/03/08 02:24:43;;;;;;;11.63;6.47;;;;;;;-0.27;100.00;99328.38;4811090;29;20219;-70
2023/03/08 02:27:16;;;;;;;6.60;3.50;;;;;;;-0.26;100.00;99330.03;4813583;29;20282;-70
2023/03/08 02:29:46;;;;;;;7.70;5.28;;;;;;;-0.24;100.00;99333.38;4804066;29;20213;-71
2023/03/08 02:32:16;;;;;;;12.02;5.10;;;;;;;-0.24;100.00;99322.72;4802633;29;20214;-70
2023/03/08 02:34:45;;;;;;;10.73;5.53;;;;;;;-0.27;100.00;99323.06;4797443;29;20218;-69
2023/03/08 02:37:14;;;;;;;9.77;6.07;;;;;;;-0.44;100.00;99327.59;4796230;29;20798;-69
2023/03/08 02:39:45;;;;;;;9.07;5.22;;;;;;;-0.38;100.00;99331.38;4800855;29;20296;-69
2023/03/08 02:42:14;;;;;;;5.75;5.15;;;;;;;-0.39;100.00;99335.91;4796443;29;20225;-70
2023/03/08 02:44:43;;;;;;;16.33;5.68;;;;;;;-0.29;100.00;99341.03;4807959;29;20292;-70
2023/03/08 02:47:12;;;;;;;7.55;4.85;;;;;;;-0.41;100.00;99343.19;4808792;29;20312;-70
2023/03/08 02:49:42;;;;;;;8.90;6.13;;;;;;;-0.36;100.00;99343.53;4791998;29;20300;-70
2023/03/08 02:52:11;;;;;;;10.63;5.60;;;;;;;-0.40;100.00;99342.22;4804082;29;20212;-70
2023/03/08 02:54:40;;;;;;;13.90;8.43;;;;;;;-0.40;100.00;99342.22;4789479;29;20195;-70
2023/03/08 02:57:11;;;;;;;9.98;7.20;;;;;;;-0.33;100.00;99345.00;4808990;29;20243;-70
2023/03/08 02:59:40;;;;;;;12.82;7.38;;;;;;;-0.30;100.00;99340.19;4805203;29;20757;-70
2023/03/08 03:02:09;;;;;;;8.35;6.55;;;;;;;-0.23;100.00;99340.31;4807037;29;20214;-70
2023/03/08 03:04:39;;;;;;;11.15;7.82;;;;;;;-0.09;100.00;99339.59;4799789;29;20212;-70
2023/03/08 03:07:08;;;;;;;9.27;7.60;;;;;;;-0.05;100.00;99332.97;4800596;29;20229;-70
2023/03/08 03:09:38;;;;;;;11.45;8.57;;;;;;;-0.02;100.00;99337.94;4818622;29;20339;-70
2023/03/08 03:12:08;;;;;;;16.05;7.85;;;;;;;-0.07;100.00;99335.78;4806818;29;20228;-70
2023/03/08 03:14:42;;;;;;;14.20;9.00;;;;;;;0.05;100.00;99344.19;4801082;29;20265;-69
2023/03/08 03:17:11;;;;;;;13.52;7.53;;;;;;;0.22;100.00;99340.47;4804499;29;20240;-70
2023/03/08 03:19:40;;;;;;;12.80;7.45;;;;;;;0.28;100.00;99346.94;4807101;29;20210;-70
2023/03/08 03:22:09;;;;;;;21.50;8.30;;;;;;;0.33;100.00;99342.75;4794005;29;20259;-70
2023/03/08 03:24:39;;;;;;;12.25;8.20;;;;;;;0.34;100.00;99347.06;4798306;29;20642;-71
2023/03/08 03:27:08;;;;;;;15.80;8.57;;;;;;;0.43;100.00;99347.88;4791627;29;20243;-71
2023/03/08 03:29:41;;;;;;;17.98;10.40;;;;;;;0.54;99.66;99344.78;4808936;29;20215;-70
2023/03/08 03:32:15;;;;;;;18.70;9.90;;;;;;;0.56;99.18;99344.63;4804044;29;20208;-70
2023/03/08 03:34:44;;;;;;;12.07;8.27;;;;;;;0.51;98.79;99345.16;4792196;29;20236;-69
2023/03/08 03:37:13;;;;;;;16.17;9.50;;;;;;;0.51;97.94;99349.63;4804325;29;20229;-70
2023/03/08 03:39:43;;;;;;;12.05;8.02;;;;;;;0.39;98.10;99358.00;4802882;29;20211;-69
2023/03/08 03:42:15;;;;;;;15.77;8.70;;;;;;;0.39;98.40;99360.66;4802765;29;20270;-70
2023/03/08 03:44:53;;;;;;;12.90;7.18;;;;;;;0.35;97.91;99367.34;4810583;29;20201;-71
2023/03/08 03:47:23;;;;;;;10.00;7.18;;;;;;;0.31;98.25;99368.69;4802608;29;20620;-69
2023/03/08 03:49:57;;;;;;;16.05;9.40;;;;;;;0.28;98.26;99369.06;4802888;29;20205;-71
2023/03/08 03:52:30;;;;;;;11.40;8.60;;;;;;;0.35;98.38;99370.00;4814181;29;20213;-69
2023/03/08 03:55:04;;;;;;;16.42;8.60;;;;;;;0.47;97.66;99374.94;4793966;29;20206;-69
2023/03/08 03:57:33;;;;;;;11.98;8.07;;;;;;;0.49;97.56;99378.25;4782086;29;20793;-69
2023/03/08 04:00:06;;;;;;;15.38;8.10;;;;;;;0.55;97.59;99386.38;4802458;29;20304;-69
2023/03/08 04:02:41;;;;;;;21.27;8.48;;;;;;;0.51;97.39;99387.72;4789199;29;20208;-70
2023/03/08 04:05:14;;;;;;;13.07;8.45;;;;;;;0.56;96.44;99390.69;4808138;29;20585;-70
2023/03/08 04:07:46;;;;;;;16.77;8.80;;;;;;;0.49;96.50;99394.22;4802352;29;20237;-70
2023/03/08 04:10:16;;;;;;;13.25;8.80;;;;;;;0.44;96.45;99394.75;4801921;29;20241;-69
2023/03/08 04:12:49;;;;;;;9.40;6.15;;;;;;;0.55;96.47;99393.53;4802520;29;20210;-70
2023/03/08 04:15:20;;;;;;;12.63;7.43;;;;;;;0.57;96.24;99391.53;4808210;29;20205;-70
2023/03/08 04:17:52;;;;;;;20.20;8.40;;;;;;;0.63;95.91;99396.97;4802153;29;20251;-70
2023/03/08 04:20:24;;;;;;;13.15;8.20;;;;;;;0.69;96.28;99392.78;4801533;29;20216;-70
2023/03/08 04:22:57;;;;;;;12.40;8.60;;;;;;;0.79;95.72;99394.22;4789999;29;20219;-70
2023/03/08 04:25:34;;;;;;;14.40;9.43;;;;;;;0.64;95.17;99392.47;4787335;29;20204;-70
2023/03/08 04:28:04;;;;;;;14.23;8.43;;;;;;;0.61;95.57;99392.84;4803540;29;20796;-70
2023/03/08 04:30:35;;;;;;;11.38;7.85;;;;;;;0.70;95.63;99397.94;4796430;29;20194;-70
2023/03/08 04:33:06;;;;;;;16.77;9.48;;;;;;;0.74;94.86;99401.06;4802072;29;20213;-70
2023/03/08 04:35:44;;;;;;;13.07;8.43;;;;;;;0.78;95.68;99399.72;4802296;29;20213;-70
2023/03/08 04:38:19;;;;;;;10.93;9.00;;;;;;;0.73;95.67;99402.06;4793189;29;20256;-70
2023/03/08 04:41:04;;;;;;;19.15;9.07;;;;;;;0.63;94.54;99407.63;4803353;29;20265;-69
2023/03/08 04:43:46;;;;;;;13.18;7.70;;;;;;;0.78;95.00;99394.38;4796843;29;20225;-70
2023/03/08 04:46:19;;;;;;;12.40;7.45;;;;;;;0.57;95.01;99391.53;4801262;29;20213;-70
2023/03/08 04:48:51;;;;;;;16.13;9.52;;;;;;;0.51;95.67;99390.38;4796199;29;20228;-70
2023/03/08 04:51:23;;;;;;;17.50;8.45;;;;;;;0.36;96.14;99390.28;4802466;29;20701;-71
2023/03/08 04:53:53;;;;;;;12.98;8.35;;;;;;;0.21;96.15;99392.03;4802450;29;20262;-71
2023/03/08 04:56:22;;;;;;;9.88;6.90;;;;;;;0.14;97.76;99383.09;4797725;29;20422;-70
2023/03/08 04:58:53;;;;;;;10.63;7.30;;;;;;;0.11;97.74;99388.72;4796443;29;20222;-70
2023/03/08 05:01:25;;;;;;;12.00;8.30;;;;;;;0.08;98.52;99380.28;4801862;29;20984;-70
2023/03/08 05:03:55;;;;;;;11.55;8.10;;;;;;;-0.05;98.49;99386.94;4807637;29;20228;-70
2023/03/08 05:06:32;;;;;;;14.32;9.57;;;;;;;-0.18;99.48;99383.16;4801133;29;20210;-70
2023/03/08 05:09:01;;;;;;;20.60;10.30;;;;;;;-0.26;100.00;99388.50;4799841;29;20225;-71
2023/03/08 05:11:31;;;;;;;14.43;9.45;;;;;;;-0.25;100.00;99385.69;4786549;29;20214;-70
2023/03/08 05:14:01;;;;;;;15.57;9.05;;;;;;;-0.28;100.00;99387.84;4793754;29;20707;-70
2023/03/08 05:16:31;;;;;;;15.90;10.02;;;;;;;-0.20;100.00;99394.00;4805392;29;20213;-70
2023/03/08 05:19:01;;;;;;;18.30;10.18;;;;;;;-0.11;100.00;99386.81;4798965;29;20301;-70
2023/03/08 05:21:36;;;;;;;13.63;9.00;;;;;;;-0.03;100.00;99392.09;4805679;29;20242;-70
2023/03/08 05:24:06;;;;;;;15.35;9.90;;;;;;;0.09;100.00;99396.06;4801345;29;20270;-70
2023/03/08 05:26:38;;;;;;;17.05;9.63;;;;;;;0.19;99.54;99399.38;4795887;29;20690;-70
2023/03/08 05:29:09;;;;;;;20.77;9.18;;;;;;;0.17;98.75;99400.53;4801398;29;20212;-70
2023/03/08 05:31:43;;;;;;;22.95;10.60;;;;;;;0.25;98.05;99403.13;4786381;29;20209;-70
2023/03/08 05:34:13;;;;;;;14.95;9.68;;;;;;;0.14;97.56;99407.03;4786609;29;20201;-71
2023/03/08 05:36:47;;;;;;;15.85;9.30;;;;;;;0.24;98.08;99396.97;4797157;29;20312;-71
2023/03/08 05:39:16;;;;;;;15.70;9.20;;;;;;;0.25;97.78;99397.81;4803458;29;20757;-70
2023/03/08 05:41:55;;;;;;;12.73;7.65;;;;;;;0.28;97.34;99403.66;4801548;29;20193;-70
2023/03/08 05:44:30;;;;;;;15.77;7.95;;;;;;;0.35;96.99;99404.59;4801341;29;20217;-71
2023/03/08 05:47:02;;;;;;;12.38;9.70;;;;;;;0.39;96.66;99413.06;4801434;29;20233;-71
2023/03/08 05:49:31;;;;;;;13.77;8.10;;;;;;;0.52;96.73;99412.50;4805656;29;20596;-70
2023/03/08 05:52:00;;;;;;;13.60;8.55;;;;;;;0.64;96.07;99413.78;4789436;29;20660;-70
2023/03/08 05:54:30;;;;;;;18.75;9.05;;;;;;;0.66;95.82;99411.78;4798010;29;20588;-70
2023/03/08 05:57:03;;;;;;;13.15;8.57;;;;;;;0.55;95.22;99412.16;4812287;29;20253;-70
2023/03/08 05:59:33;;;;;;;12.25;7.15;;;;;;;0.56;95.22;99416.47;4808198;29;20205;-69
2023/03/08 06:02:06;;;;;;;12.05;7.85;;;;;;;0.78;94.76;99413.03;4808763;29;20585;-71
2023/03/08 06:04:42;;;;;;;13.15;7.72;;;;;;;0.86;93.86;99423.66;4791042;29;20266;-71
2023/03/08 06:07:13;;;;;;;13.38;8.23;;;;;;;0.85;93.92;99417.50;4807652;29;20230;-71
2023/03/08 06:09:50;;;;;;;16.30;9.20;;;;;;;0.88;93.67;99419.78;4806109;29;20308;-71
2023/03/08 06:12:20;;;;;;;14.95;8.65;;;;;;;0.94;93.09;99414.75;4802674;29;20218;-72
2023/03/08 06:14:53;;;;;;;12.40;9.15;;;;;;;1.03;91.99;99419.88;4808538;29;20194;-71
2023/03/08 06:17:27;;;;;;;9.23;7.47;;;;;;;0.94;91.67;99420.09;4809761;29;20746;-72
2023/03/08 06:19:58;;;;;;;13.15;8.35;;;;;;;0.86;91.97;99420.97;4806324;29;20510;-70
2023/03/08 06:22:28;;;;;;;10.05;7.93;;;;;;;0.84;92.42;99420.31;4806089;29;20225;-71
2023/03/08 06:24:57;;;;;;;11.43;8.02;;;;;;;0.76;92.41;99429.19;4805748;29;20238;-71
2023/03/08 06:27:32;;;;;;;13.45;8.15;;;;;;;0.72;92.96;99422.56;4792456;29;20235;-71
2023/03/08 06:30:06;;;;;;;9.05;7.00;;;;;;;0.64;92.39;99424.41;4798487;29;20223;-70
2023/03/08 06:32:36;;;;;;;10.98;7.65;;;;;;;0.63;92.68;99433.44;4792323;29;20205;-70
2023/03/08 06:35:08;;;;;;;14.55;8.15;;;;;;;0.64;92.95;99440.38;4797622;29;20209;-71
2023/03/08 06:37:43;;;;;;;10.25;6.68;;;;;;;0.74;93.48;99441.00;4809229;29;20254;-71
2023/03/08 06:40:13;;;;;;;14.55;8.30;;;;;;;0.70;92.16;99439.69;4798530;29;20270;-70
2023/03/08 06:42:43;;;;;;;8.23;6.30;;;;;;;0.80;90.89;99442.97;4804942;29;20224;-70
2023/03/08 06:45:15;;;;;;;12.32;8.52;;;;;;;0.92;90.69;99438.91;4802873;29;20316;-70
2023/03/08 06:47:45;;;;;;;10.43;7.25;;;;;;;0.85;90.73;99437.97;4788097;29;20240;-73
2023/03/08 06:50:15;;;;;;;11.73;7.97;;;;;;;0.72;90.84;99438.53;4800312;29;20240;-71
2023/03/08 06:52:46;;;;;;;7.68;6.40;;;;;;;0.72;90.95;99430.56;4789140;30;20210;-71
2023/03/08 06:55:21;;;;;;;14.35;7.82;;;;;;;1.01;90.65;99431.72;4803908;29;20431;-71
2023/03/08 06:57:51;;;;;;;9.98;7.93;;;;;;;1.14;89.74;99426.63;4803790;29;20728;-71
2023/03/08 07:00:21;;;;;;;11.57;7.63;;;;;;;1.29;88.24;99420.34;4796508;29;20213;-70
2023/03/08 07:02:52;;;;;;;13.05;8.38;;;;;;;1.19;87.73;99419.75;4810136;29;20201;-69
2023/03/08 07:05:21;;;;;;;15.38;8.35;;;;;;;1.31;87.59;99420.97;4797501;29;20634;-70
2023/03/08 07:07:50;;;;;;;11.63;7.30;;;;;;;1.55;87.03;99419.94;4794784;29;20275;-72
2023/03/08 07:10:21;;;;;;;17.70;12.32;;;;;;;1.68;86.44;99414.00;4806908;29;20253;-73
2023/03/08 07:12:51;;;;;;;13.00;8.35;;;;;;;1.80;85.51;99423.22;4796481;29;20216;-70
2023/03/08 07:15:22;;;;;;;12.60;8.57;;;;;;;1.86;84.35;99417.16;4800361;29;20202;-71
2023/03/08 07:17:55;;;;;;;11.93;7.15;;;;;;;1.78;85.13;99419.91;4795675;29;20226;-71
2023/03/08 07:20:27;;;;;;;9.57;7.28;;;;;;;1.80;84.79;99412.56;4798554;29;20690;-71
2023/03/08 07:23:00;;;;;;;10.63;7.30;;;;;;;1.91;84.86;99417.44;4804445;29;20207;-70
2023/03/08 07:25:30;;;;;;;16.67;6.80;;;;;;;1.88;84.01;99420.50;4793729;29;20589;-69
2023/03/08 07:27:59;;;;;;;14.25;7.35;;;;;;;1.88;84.14;99425.81;4803891;29;20753;-70
2023/03/08 07:30:55;;;;;;;10.77;7.18;;;;;;;1.89;84.95;99432.78;4803459;29;20741;-71
2023/03/08 07:33:26;;;;;;;11.25;7.97;;;;;;;1.93;85.63;99420.78;4798510;29;20632;-69
2023/03/08 07:35:55;;;;;;;11.88;8.95;;;;;;;2.14;84.67;99415.53;4803656;29;20210;-69
2023/03/08 07:38:24;;;;;;;10.80;7.93;;;;;;;2.11;84.70;99410.56;4788347;29;20279;-70
2023/03/08 07:40:55;;;;;;;15.55;7.13;;;;;;;2.16;84.35;99421.53;4803213;29;20202;-70
2023/03/08 07:43:25;;;;;;;10.65;7.43;;;;;;;2.41;84.23;99430.06;4802968;29;20288;-70
2023/03/08 07:46:05;;;;;;;16.02;7.25;;;;;;;2.55;82.14;99434.56;4806511;29;20294;-69
2023/03/08 07:48:36;;;;;;;13.68;9.07;;;;;;;2.32;81.80;99433.03;4782317;30;20785;-69
2023/03/08 07:51:08;;;;;;;10.75;7.40;;;;;;;2.25;82.36;99434.75;4804291;29;20202;-69
2023/03/08 07:53:38;;;;;;;10.60;8.20;;;;;;;2.31;82.54;99428.69;4796053;29;20202;-70
2023/03/08 07:56:08;;;;;;;12.00;8.68;;;;;;;2.22;82.79;99437.81;4791904;29;20206;-68
2023/03/08 07:58:38;;;;;;;10.32;7.30;;;;;;;2.42;82.69;99434.38;4782051;29;20229;-70
2023/03/08 08:01:35;;;;;;;9.77;7.35;;;;;;;2.39;82.19;99437.44;4824695;29;20210;-69
2023/03/08 08:04:07;;;;;;;7.75;6.10;;;;;;;2.58;81.97;99434.19;4788958;29;20202;-69
2023/03/08 08:06:37;;;;;;;18.15;7.78;;;;;;;2.79;81.05;99427.25;4805142;29;20669;-70
2023/03/08 08:09:06;;;;;;;8.70;7.07;;;;;;;3.00;79.26;99432.63;4799990;29;20204;-70
2023/03/08 08:11:36;;;;;;;9.20;7.25;;;;;;;2.77;78.78;99422.09;4794623;29;20207;-69
2023/03/08 08:14:06;;;;;;;8.85;6.55;;;;;;;2.80;79.31;99427.06;4810971;29;20285;-70
2023/03/08 08:16:35;;;;;;;9.57;7.40;;;;;;;2.84;78.23;99439.03;4793752;29;20199;-70
2023/03/08 08:19:07;;;;;;;13.55;7.22;;;;;;;2.81;78.46;99426.03;4810140;29;20197;-68
2023/03/08 08:21:36;;;;;;;9.35;8.15;;;;;;;3.11;78.36;99439.31;4806122;29;20747;-69
2023/03/08 08:24:06;;;;;;;11.48;7.85;;;;;;;3.34;77.31;99423.94;4787607;29;20267;-70
2023/03/08 08:26:35;;;;;;;10.32;7.03;;;;;;;3.73;74.99;99429.59;4790793;29;20582;-70
2023/03/08 08:29:05;;;;;;;10.77;7.55;;;;;;;4.11;73.51;99431.97;4799089;29;20674;-70
2023/03/08 08:31:34;;;;;;;7.63;6.78;;;;;;;3.69;72.66;99424.84;4794743;29;20197;-70
2023/03/08 08:34:05;;;;;;;8.85;5.65;;;;;;;3.66;72.30;99428.75;4798711;29;20218;-69
2023/03/08 08:36:34;;;;;;;7.07;6.15;;;;;;;4.01;72.08;99420.78;4803488;29;20229;-71
2023/03/08 08:39:04;;;;;;;9.18;6.35;;;;;;;4.17;71.23;99415.09;4804764;29;20233;-70
2023/03/08 08:41:33;;;;;;;9.45;6.85;;;;;;;4.58;69.83;99413.28;4802462;29;20210;-70
2023/03/08 08:44:02;;;;;;;9.63;6.78;;;;;;;4.28;69.59;99423.41;4814632;29;20647;-68
2023/03/08 08:46:33;;;;;;;8.18;6.35;;;;;;;4.21;69.34;99411.03;4806384;29;20213;-70
2023/03/08 08:49:04;;;;;;;8.75;6.65;;;;;;;4.37;69.84;99414.19;4813911;29;20290;-69
2023/03/08 08:51:35;;;;;;;9.60;6.55;;;;;;;4.58;68.66;99407.91;4790341;29;20199;-70
2023/03/08 08:54:04;;;;;;;7.90;6.07;;;;;;;4.65;68.45;99403.38;4802669;29;20207;-69
2023/03/08 08:56:33;;;;;;;9.55;6.53;;;;;;;4.87;66.54;99400.59;4800867;29;20653;-72
2023/03/08 08:59:04;;;;;;;9.35;7.82;;;;;;;4.79;67.10;99394.38;4801090;29;20281;-70
2023/03/08 09:01:35;;;;;;;10.65;6.70;;;;;;;5.16;66.75;99389.53;4806583;29;20574;-70
2023/03/08 09:04:05;;;;;;;7.60;6.90;;;;;;;5.12;66.24;99375.72;4807374;29;20206;-73
2023/03/08 09:06:36;;;;;;;12.02;6.25;;;;;;;5.09;64.89;99373.41;4806257;29;20586;-71
2023/03/08 09:09:06;;;;;;;6.30;4.72;;;;;;;5.11;65.72;99374.06;4805009;29;20214;-71
2023/03/08 09:11:35;;;;;;;10.27;6.72;;;;;;;5.30;63.99;99377.78;4790829;29;20215;-71
2023/03/08 09:14:21;;;;;;;9.02;6.10;;;;;;;5.27;64.36;99372.84;4791333;29;20198;-70
2023/03/08 09:16:51;;;;;;;15.15;5.03;;;;;;;5.34;62.71;99381.72;4788916;29;20201;-71
2023/03/08 09:19:21;;;;;;;8.00;4.95;;;;;;;5.52;61.63;99381.91;4786944;29;20208;-71
2023/03/08 09:21:52;;;;;;;7.45;4.88;;;;;;;4.90;61.79;99379.56;4802434;29;20207;-69
2023/03/08 09:24:21;;;;;;;6.20;4.97;;;;;;;4.86;62.93;99382.84;4805144;29;20215;-70
2023/03/08 09:26:50;;;;;;;8.95;4.43;;;;;;;4.98;62.57;99376.72;4812801;29;20231;-72
2023/03/08 09:29:19;;;;;;;6.88;5.30;;;;;;;5.04;62.17;99377.72;4815962;29;20210;-70
2023/03/08 09:31:48;;;;;;;6.00;4.35;;;;;;;4.97;61.95;99380.41;4790848;29;20260;-70
2023/03/08 09:34:18;;;;;;;7.57;4.50;;;;;;;4.98;63.33;99375.88;4810337;29;20206;-70
2023/03/08 09:36:47;;;;;;;6.35;4.28;;;;;;;5.00;62.85;99381.84;4790125;29;20278;-70
2023/03/08 09:39:18;;;;;;;6.82;4.30;;;;;;;4.94;62.10;99378.13;4807332;29;20271;-70
2023/03/08 09:41:54;;;;;;;4.50;3.60;;;;;;;5.09;61.46;99372.59;4802029;29;20265;-70
2023/03/08 09:44:44;;;;;;;4.60;3.50;;;;;;;5.01;60.81;99370.09;4802394;29;20211;-70
2023/03/08 09:47:20;;;;;;;4.75;3.55;;;;;;;4.98;59.81;99370.53;4801802;29;20230;-70
2023/03/08 09:49:53;;;;;;;5.50;3.75;;;;;;;4.79;59.76;99372.13;4806938;29;20198;-70
2023/03/08 09:52:28;;;;;;;4.25;2.90;;;;;;;4.87;60.13;99373.78;4793960;29;20703;-70
2023/03/08 09:55:02;;;;;;;4.57;4.00;;;;;;;5.07;58.96;99364.78;4785825;30;20195;-72
2023/03/08 09:57:45;;;;;;;5.60;3.55;;;;;;;5.08;59.29;99361.03;4801376;29;20227;-69
2023/03/08 10:00:22;;;;;;;5.20;3.38;;;;;;;5.91;57.61;99353.41;4801816;29;20268;-70
2023/03/08 10:03:03;;;;;;;5.40;3.72;;;;;;;5.99;56.44;99358.59;4788147;29;20206;-70
2023/03/08 10:05:38;;;;;;;6.40;2.92;;;;;;;5.47;57.66;99348.72;4801427;29;20231;-71
2023/03/08 10:08:13;;;;;;;4.65;3.63;;;;;;;5.86;56.35;99354.03;4798858;29;20250;-69
2023/03/08 10:10:53;;;;;;;4.72;2.85;;;;;;;6.05;56.03;99352.38;4798888;29;20427;-70
2023/03/08 10:13:32;;;;;;;8.82;3.30;;;;;;;5.89;56.02;99342.91;4801536;29;20265;-70
2023/03/08 10:16:13;;;;;;;5.63;3.35;;;;;;;6.00;57.25;99338.78;4801896;29;20208;-70
2023/03/08 10:18:50;;;;;;;3.97;2.50;;;;;;;6.33;53.88;99336.81;4801585;29;20228;-70
2023/03/08 10:21:23;;;;;;;6.15;3.63;;;;;;;6.41;54.52;99336.56;4803365;29;20646;-70
2023/03/08 10:23:59;;;;;;;3.50;3.13;;;;;;;6.83;53.48;99335.09;4801140;29;20614;-70
2023/03/08 10:26:30;;;;;;;5.40;3.55;;;;;;;7.19;53.24;99333.63;4801032;29;20641;-70
2023/03/08 10:29:00;;;;;;;6.70;3.03;;;;;;;7.06;52.38;99331.03;4801005;29;20199;-70
2023/03/08 10:31:32;;;;;;;4.20;3.80;;;;;;;7.31;51.87;99331.91;4801162;29;20697;-69
2023/03/08 10:34:11;;;;;;;6.60;4.38;;;;;;;7.43;50.94;99339.03;4800989;29;20217;-71
2023/03/08 10:36:49;;;;;;;6.18;4.72;;;;;;;6.96;52.41;99334.22;4800917;29;20204;-71
2023/03/08 10:39:19;;;;;;;3.40;3.10;;;;;;;6.87;52.22;99332.81;4800686;29;20215;-70
2023/03/08 10:41:52;;;;;;;3.40;2.67;;;;;;;6.77;51.97;99335.16;4801573;29;20262;-70
2023/03/08 10:44:35;;;;;;;3.70;3.38;;;;;;;6.71;52.95;99326.09;4803676;29;20238;-70
2023/03/08 10:47:18;;;;;;;4.85;3.83;;;;;;;6.55;52.97;99327.41;4820577;29;20231;-71
2023/03/08 10:49:47;;;;;;;4.70;3.67;;;;;;;6.93;51.42;99323.88;4807701;29;20207;-70
2023/03/08 10:52:25;;;;;;;4.15;3.33;;;;;;;6.54;52.72;99320.38;4804486;29;20273;-70
2023/03/08 10:55:02;;;;;;;8.07;3.67;;;;;;;6.60;52.28;99316.00;4804000;29;20307;-71
2023/03/08 10:57:33;;;;;;;4.30;3.13;;;;;;;6.45;53.11;99304.69;4792893;29;20231;-70
2023/03/08 11:00:12;;;;;;;4.63;3.53;;;;;;;6.56;53.38;99312.09;4808210;29;20742;-70
2023/03/08 11:02:41;;;;;;;4.65;3.13;;;;;;;6.72;51.43;99302.72;4804272;29;20211;-70
2023/03/08 11:05:20;;;;;;;7.00;2.95;;;;;;;6.52;52.39;99298.28;4805249;29;20207;-70
2023/03/08 11:07:54;;;;;;;5.57;3.70;;;;;;;6.61;52.03;99295.31;4801358;29;20235;-70
2023/03/08 11:10:26;;;;;;;4.97;2.95;;;;;;;7.31;51.46;99289.66;4805805;29;20217;-70
2023/03/08 11:13:16;;;;;;;4.13;2.70;;;;;;;7.53;48.88;99283.88;4805344;29;20292;-70
2023/03/08 11:15:50;;;;;;;4.22;3.72;;;;;;;7.64;49.16;99289.38;4790636;29;20210;-71
2023/03/08 11:18:30;;;;;;;4.78;3.45;;;;;;;7.76;49.29;99278.69;4805236;29;20240;-71
2023/03/08 11:21:10;;;;;;;4.45;2.58;;;;;;;7.22;48.85;99280.22;4790399;29;20205;-71
2023/03/08 11:23:49;;;;;;;2.95;2.53;;;;;;;6.82;50.25;99279.69;4789290;30;20269;-69
2023/03/08 11:26:28;;;;;;;6.10;3.88;;;;;;;6.86;50.98;99275.53;4789803;29;20218;-70
2023/03/08 11:29:11;;;;;;;5.85;3.60;;;;;;;7.00;51.34;99270.88;4800188;29;20204;-69
2023/03/08 11:31:49;;;;;;;5.13;3.40;;;;;;;7.15;50.30;99266.00;4803057;29;20622;-71
2023/03/08 11:38:48;;;;;;;3.67;2.63;;;;;;;7.30;50.12;99253.03;4789261;29;20218;-70
2023/03/08 11:41:24;;;;;;;6.43;3.08;;;;;;;7.20;48.50;99250.03;4803937;29;20204;-71
2023/03/08 11:44:13;;;;;;;6.47;4.32;;;;;;;6.77;50.62;99244.56;4784456;30;20208;-70
2023/03/08 11:46:59;;;;;;;4.78;4.30;;;;;;;6.86;51.94;99237.06;4789850;29;20608;-70
2023/03/08 11:49:45;;;;;;;7.18;3.88;;;;;;;6.63;52.25;99242.19;4802366;29;20611;-70
2023/03/08 11:52:27;;;;;;;6.25;4.57;;;;;;;6.68;53.23;99235.09;4788825;29;20263;-70
2023/03/08 11:55:07;;;;;;;8.07;3.95;;;;;;;6.94;52.87;99226.84;4799929;29;20211;-69
2023/03/08 11:57:40;;;;;;;6.78;4.90;;;;;;;7.06;51.76;99220.78;4791646;29;20231;-72
2023/03/08 12:00:22;;;;;;;6.20;3.15;;;;;;;7.21;50.29;99224.75;4803050;29;20209;-70
2023/03/08 12:02:54;;;;;;;3.90;3.13;;;;;;;7.11;49.90;99226.31;4793126;29;20243;-71